sensor_id;sensor_type;location;lat;lon;timestamp;temperature;humidity
19330;DHT22;9799;48.214;16.388;2022-11-23T00:00:22;6.20;99.90
19330;DHT22;9799;48.214;16.388;2022-11-23T00:03:44;6.10;99.90
19330;DHT22;9799;48.214;16.388;2022-11-23T00:07:07;6.20;99.90
19330;DHT22;9799;48.214;16.388;2022-11-23T00:10:28;6.00;99.90
19330;DHT22;9799;48.214;16.388;2022-11-23T00:13:50;6.00;99.90
19330;DHT22;9799;48.214;16.388;2022-11-23T00:17:11;6.10;99.90
19330;DHT22;9799;48.214;16.388;2022-11-23T00:20:32;6.10;99.90
19330;DHT22;9799;48.214;16.388;2022-11-23T00:23:55;6.10;99.90
19330;DHT22;9799;48.214;16.388;2022-11-23T00:27:16;6.10;99.90
19330;DHT22;9799;48.214;16.388;2022-11-23T00:30:37;6.20;99.90
19330;DHT22;9799;48.214;16.388;2022-11-23T00:33:59;6.10;99.90
19330;DHT22;9799;48.214;16.388;2022-11-23T00:37:23;6.20;99.90
19330;DHT22;9799;48.214;16.388;2022-11-23T00:40:45;6.20;99.90
19330;DHT22;9799;48.214;16.388;2022-11-23T00:44:06;6.20;99.90
19330;DHT22;9799;48.214;16.388;2022-11-23T00:47:28;6.30;99.90
19330;DHT22;9799;48.214;16.388;2022-11-23T00:50:49;6.30;99.90
19330;DHT22;9799;48.214;16.388;2022-11-23T00:54:10;6.30;99.90
19330;DHT22;9799;48.214;16.388;2022-11-23T00:57:33;6.20;99.90
19330;DHT22;9799;48.214;16.388;2022-11-23T01:01:04;6.20;99.90
19330;DHT22;9799;48.214;16.388;2022-11-23T01:04:25;6.20;99.90
19330;DHT22;9799;48.214;16.388;2022-11-23T01:07:48;6.20;99.90
19330;DHT22;9799;48.214;16.388;2022-11-23T01:11:10;6.20;99.90
19330;DHT22;9799;48.214;16.388;2022-11-23T01:14:33;6.30;99.90
19330;DHT22;9799;48.214;16.388;2022-11-23T01:17:54;6.20;99.90
19330;DHT22;9799;48.214;16.388;2022-11-23T01:21:16;6.20;99.90
19330;DHT22;9799;48.214;16.388;2022-11-23T01:24:37;6.10;99.90
19330;DHT22;9799;48.214;16.388;2022-11-23T01:27:58;6.10;99.90
19330;DHT22;9799;48.214;16.388;2022-11-23T01:31:22;6.10;99.90
19330;DHT22;9799;48.214;16.388;2022-11-23T01:34:43;6.20;99.90
19330;DHT22;9799;48.214;16.388;2022-11-23T01:38:04;6.20;99.90
19330;DHT22;9799;48.214;16.388;2022-11-23T01:41:28;6.10;99.90
19330;DHT22;9799;48.214;16.388;2022-11-23T01:44:49;6.10;99.90
19330;DHT22;9799;48.214;16.388;2022-11-23T01:48:17;6.10;99.90
19330;DHT22;9799;48.214;16.388;2022-11-23T01:51:40;6.10;99.90
19330;DHT22;9799;48.214;16.388;2022-11-23T01:55:04;6.00;99.90
19330;DHT22;9799;48.214;16.388;2022-11-23T01:58:27;6.10;99.90
19330;DHT22;9799;48.214;16.388;2022-11-23T02:01:49;6.10;99.90
19330;DHT22;9799;48.214;16.388;2022-11-23T02:05:12;6.20;99.90
19330;DHT22;9799;48.214;16.388;2022-11-23T02:08:35;6.20;99.90
19330;DHT22;9799;48.214;16.388;2022-11-23T02:11:57;6.20;99.90
19330;DHT22;9799;48.214;16.388;2022-11-23T02:15:18;6.20;99.90
19330;DHT22;9799;48.214;16.388;2022-11-23T02:18:42;6.20;99.90
19330;DHT22;9799;48.214;16.388;2022-11-23T02:22:10;6.10;99.90
19330;DHT22;9799;48.214;16.388;2022-11-23T02:25:37;6.00;99.90
19330;DHT22;9799;48.214;16.388;2022-11-23T02:29:05;6.10;99.90
19330;DHT22;9799;48.214;16.388;2022-11-23T02:32:28;6.20;99.90
19330;DHT22;9799;48.214;16.388;2022-11-23T02:35:51;6.20;99.90
19330;DHT22;9799;48.214;16.388;2022-11-23T02:39:16;6.20;99.90
19330;DHT22;9799;48.214;16.388;2022-11-23T02:42:38;6.20;99.90
19330;DHT22;9799;48.214;16.388;2022-11-23T02:46:02;6.30;99.90
19330;DHT22;9799;48.214;16.388;2022-11-23T02:49:24;6.30;99.90
19330;DHT22;9799;48.214;16.388;2022-11-23T02:52:45;6.20;99.90
19330;DHT22;9799;48.214;16.388;2022-11-23T02:56:07;6.20;99.90
19330;DHT22;9799;48.214;16.388;2022-11-23T02:59:28;6.20;99.90
19330;DHT22;9799;48.214;16.388;2022-11-23T03:02:52;6.20;99.90
19330;DHT22;9799;48.214;16.388;2022-11-23T03:06:13;6.20;99.90
19330;DHT22;9799;48.214;16.388;2022-11-23T03:09:34;6.10;99.90
19330;DHT22;9799;48.214;16.388;2022-11-23T03:12:55;6.20;99.90
19330;DHT22;9799;48.214;16.388;2022-11-23T03:16:17;6.20;99.90
19330;DHT22;9799;48.214;16.388;2022-11-23T03:19:39;6.20;99.90
19330;DHT22;9799;48.214;16.388;2022-11-23T03:23:00;6.20;99.90
19330;DHT22;9799;48.214;16.388;2022-11-23T03:26:21;6.20;99.90
19330;DHT22;9799;48.214;16.388;2022-11-23T03:29:43;6.20;99.90
19330;DHT22;9799;48.214;16.388;2022-11-23T03:33:04;6.20;99.90
19330;DHT22;9799;48.214;16.388;2022-11-23T03:36:26;5.90;99.90
19330;DHT22;9799;48.214;16.388;2022-11-23T03:39:47;5.90;99.90
19330;DHT22;9799;48.214;16.388;2022-11-23T03:43:09;5.90;99.90
19330;DHT22;9799;48.214;16.388;2022-11-23T03:46:30;6.00;99.90
19330;DHT22;9799;48.214;16.388;2022-11-23T03:49:51;6.00;99.90
19330;DHT22;9799;48.214;16.388;2022-11-23T03:53:13;6.10;99.90
19330;DHT22;9799;48.214;16.388;2022-11-23T03:56:35;6.00;99.90
19330;DHT22;9799;48.214;16.388;2022-11-23T03:59:56;6.00;99.90
19330;DHT22;9799;48.214;16.388;2022-11-23T04:03:17;6.10;99.90
19330;DHT22;9799;48.214;16.388;2022-11-23T04:06:38;6.20;99.90
19330;DHT22;9799;48.214;16.388;2022-11-23T04:10:01;6.20;99.90
19330;DHT22;9799;48.214;16.388;2022-11-23T04:13:22;6.20;99.90
19330;DHT22;9799;48.214;16.388;2022-11-23T04:16:44;6.20;99.90
19330;DHT22;9799;48.214;16.388;2022-11-23T04:20:06;6.20;99.90
19330;DHT22;9799;48.214;16.388;2022-11-23T04:23:27;6.20;99.90
19330;DHT22;9799;48.214;16.388;2022-11-23T04:26:50;6.30;99.90
19330;DHT22;9799;48.214;16.388;2022-11-23T04:30:12;6.20;99.90
19330;DHT22;9799;48.214;16.388;2022-11-23T04:33:33;6.20;99.90
19330;DHT22;9799;48.214;16.388;2022-11-23T04:36:54;6.00;99.90
19330;DHT22;9799;48.214;16.388;2022-11-23T04:40:15;6.00;99.90
19330;DHT22;9799;48.214;16.388;2022-11-23T04:43:38;6.10;99.90
19330;DHT22;9799;48.214;16.388;2022-11-23T04:46:59;6.10;99.90
19330;DHT22;9799;48.214;16.388;2022-11-23T04:50:20;6.10;99.90
19330;DHT22;9799;48.214;16.388;2022-11-23T04:53:41;6.10;99.90
19330;DHT22;9799;48.214;16.388;2022-11-23T04:57:03;6.10;99.90
19330;DHT22;9799;48.214;16.388;2022-11-23T05:00:25;6.10;99.90
19330;DHT22;9799;48.214;16.388;2022-11-23T05:03:47;6.10;99.90
19330;DHT22;9799;48.214;16.388;2022-11-23T05:07:08;6.10;99.90
19330;DHT22;9799;48.214;16.388;2022-11-23T05:10:29;6.10;99.90
19330;DHT22;9799;48.214;16.388;2022-11-23T05:13:50;6.10;99.90
19330;DHT22;9799;48.214;16.388;2022-11-23T05:17:13;6.00;99.90
19330;DHT22;9799;48.214;16.388;2022-11-23T05:20:34;6.00;99.90
19330;DHT22;9799;48.214;16.388;2022-11-23T05:23:55;6.10;99.90
19330;DHT22;9799;48.214;16.388;2022-11-23T05:27:16;6.10;99.90
19330;DHT22;9799;48.214;16.388;2022-11-23T05:30:37;6.10;99.90
19330;DHT22;9799;48.214;16.388;2022-11-23T05:34:00;6.10;99.90
19330;DHT22;9799;48.214;16.388;2022-11-23T05:37:23;6.00;99.90
19330;DHT22;9799;48.214;16.388;2022-11-23T05:40:44;6.00;99.90
19330;DHT22;9799;48.214;16.388;2022-11-23T05:44:06;6.00;99.90
19330;DHT22;9799;48.214;16.388;2022-11-23T05:47:27;6.10;99.90
19330;DHT22;9799;48.214;16.388;2022-11-23T05:50:50;6.00;99.90
19330;DHT22;9799;48.214;16.388;2022-11-23T05:54:11;6.00;99.90
19330;DHT22;9799;48.214;16.388;2022-11-23T05:57:32;6.00;99.90
19330;DHT22;9799;48.214;16.388;2022-11-23T06:00:56;6.00;99.90
19330;DHT22;9799;48.214;16.388;2022-11-23T06:04:18;6.00;99.90
19330;DHT22;9799;48.214;16.388;2022-11-23T06:07:41;6.10;99.90
19330;DHT22;9799;48.214;16.388;2022-11-23T06:11:02;6.00;99.90
19330;DHT22;9799;48.214;16.388;2022-11-23T06:14:23;6.00;99.90
19330;DHT22;9799;48.214;16.388;2022-11-23T06:17:44;6.00;99.90
19330;DHT22;9799;48.214;16.388;2022-11-23T06:21:05;6.00;99.90
19330;DHT22;9799;48.214;16.388;2022-11-23T06:24:28;6.00;99.90
19330;DHT22;9799;48.214;16.388;2022-11-23T06:27:53;5.90;99.90
19330;DHT22;9799;48.214;16.388;2022-11-23T06:31:14;5.90;99.90
19330;DHT22;9799;48.214;16.388;2022-11-23T06:34:35;5.90;99.90
19330;DHT22;9799;48.214;16.388;2022-11-23T06:37:57;5.90;99.90
19330;DHT22;9799;48.214;16.388;2022-11-23T06:41:19;5.90;99.90
19330;DHT22;9799;48.214;16.388;2022-11-23T06:44:41;5.70;99.90
19330;DHT22;9799;48.214;16.388;2022-11-23T06:48:02;5.80;99.90
19330;DHT22;9799;48.214;16.388;2022-11-23T06:51:23;5.90;99.90
19330;DHT22;9799;48.214;16.388;2022-11-23T06:54:45;5.90;99.90
19330;DHT22;9799;48.214;16.388;2022-11-23T06:58:08;6.00;99.90
19330;DHT22;9799;48.214;16.388;2022-11-23T07:01:29;6.00;99.90
19330;DHT22;9799;48.214;16.388;2022-11-23T07:04:51;6.10;99.90
19330;DHT22;9799;48.214;16.388;2022-11-23T07:08:12;6.20;99.90
19330;DHT22;9799;48.214;16.388;2022-11-23T07:11:34;6.20;99.90
19330;DHT22;9799;48.214;16.388;2022-11-23T07:14:56;6.20;99.90
19330;DHT22;9799;48.214;16.388;2022-11-23T07:18:17;6.20;99.90
19330;DHT22;9799;48.214;16.388;2022-11-23T07:21:38;6.20;99.90
19330;DHT22;9799;48.214;16.388;2022-11-23T07:25:00;6.10;99.90
19330;DHT22;9799;48.214;16.388;2022-11-23T07:28:21;6.10;99.90
19330;DHT22;9799;48.214;16.388;2022-11-23T07:31:44;6.10;99.90
19330;DHT22;9799;48.214;16.388;2022-11-23T07:35:05;6.10;99.90
19330;DHT22;9799;48.214;16.388;2022-11-23T07:38:27;6.10;99.90
19330;DHT22;9799;48.214;16.388;2022-11-23T07:41:48;6.10;99.90
19330;DHT22;9799;48.214;16.388;2022-11-23T07:45:10;6.10;99.90
19330;DHT22;9799;48.214;16.388;2022-11-23T07:48:33;6.10;99.90
19330;DHT22;9799;48.214;16.388;2022-11-23T07:51:54;6.20;99.90
19330;DHT22;9799;48.214;16.388;2022-11-23T07:55:15;6.30;99.90
19330;DHT22;9799;48.214;16.388;2022-11-23T07:58:37;6.20;99.90
19330;DHT22;9799;48.214;16.388;2022-11-23T08:01:58;6.30;99.90
19330;DHT22;9799;48.214;16.388;2022-11-23T08:05:20;6.30;99.90
19330;DHT22;9799;48.214;16.388;2022-11-23T08:08:42;6.20;99.90
19330;DHT22;9799;48.214;16.388;2022-11-23T08:12:03;6.20;99.90
19330;DHT22;9799;48.214;16.388;2022-11-23T08:15:25;6.20;99.90
19330;DHT22;9799;48.214;16.388;2022-11-23T08:18:47;6.20;99.90
19330;DHT22;9799;48.214;16.388;2022-11-23T08:22:10;6.20;99.90
19330;DHT22;9799;48.214;16.388;2022-11-23T08:25:32;6.20;99.90
19330;DHT22;9799;48.214;16.388;2022-11-23T08:28:53;6.20;99.90
19330;DHT22;9799;48.214;16.388;2022-11-23T08:32:16;6.20;99.90
19330;DHT22;9799;48.214;16.388;2022-11-23T08:35:38;6.20;99.90
19330;DHT22;9799;48.214;16.388;2022-11-23T08:39:01;6.20;99.90
19330;DHT22;9799;48.214;16.388;2022-11-23T08:42:22;6.20;99.90
19330;DHT22;9799;48.214;16.388;2022-11-23T08:45:43;6.30;99.90
19330;DHT22;9799;48.214;16.388;2022-11-23T08:49:05;6.30;99.90
19330;DHT22;9799;48.214;16.388;2022-11-23T08:52:26;6.20;99.90
19330;DHT22;9799;48.214;16.388;2022-11-23T08:55:49;6.20;99.90
19330;DHT22;9799;48.214;16.388;2022-11-23T08:59:10;6.20;99.90
19330;DHT22;9799;48.214;16.388;2022-11-23T09:02:31;6.20;99.90
19330;DHT22;9799;48.214;16.388;2022-11-23T09:05:52;6.20;99.90
19330;DHT22;9799;48.214;16.388;2022-11-23T09:09:14;6.10;99.90
19330;DHT22;9799;48.214;16.388;2022-11-23T09:12:37;6.00;99.90
19330;DHT22;9799;48.214;16.388;2022-11-23T09:15:58;6.00;99.90
19330;DHT22;9799;48.214;16.388;2022-11-23T09:19:20;6.10;99.90
19330;DHT22;9799;48.214;16.388;2022-11-23T09:22:41;6.20;99.90
19330;DHT22;9799;48.214;16.388;2022-11-23T09:26:03;6.10;99.90
19330;DHT22;9799;48.214;16.388;2022-11-23T09:29:26;6.10;99.90
19330;DHT22;9799;48.214;16.388;2022-11-23T09:32:47;6.20;99.90
19330;DHT22;9799;48.214;16.388;2022-11-23T09:36:09;6.30;99.90
19330;DHT22;9799;48.214;16.388;2022-11-23T09:39:30;6.20;99.90
19330;DHT22;9799;48.214;16.388;2022-11-23T09:43:01;6.20;99.90
19330;DHT22;9799;48.214;16.388;2022-11-23T09:46:35;6.30;99.90
19330;DHT22;9799;48.214;16.388;2022-11-23T09:50:09;6.40;99.90
19330;DHT22;9799;48.214;16.388;2022-11-23T09:53:36;6.40;99.90
19330;DHT22;9799;48.214;16.388;2022-11-23T09:56:59;6.40;99.90
19330;DHT22;9799;48.214;16.388;2022-11-23T10:00:23;6.30;99.90
19330;DHT22;9799;48.214;16.388;2022-11-23T10:03:46;6.30;99.90
19330;DHT22;9799;48.214;16.388;2022-11-23T10:07:17;6.40;99.90
19330;DHT22;9799;48.214;16.388;2022-11-23T10:10:43;6.40;99.90
19330;DHT22;9799;48.214;16.388;2022-11-23T10:14:15;6.50;99.90
19330;DHT22;9799;48.214;16.388;2022-11-23T10:18:02;6.50;99.90
19330;DHT22;9799;48.214;16.388;2022-11-23T10:21:36;6.60;99.90
19330;DHT22;9799;48.214;16.388;2022-11-23T10:25:02;6.70;99.90
19330;DHT22;9799;48.214;16.388;2022-11-23T10:28:29;6.70;99.90
19330;DHT22;9799;48.214;16.388;2022-11-23T10:31:52;6.70;99.90
19330;DHT22;9799;48.214;16.388;2022-11-23T10:35:15;6.90;99.90
19330;DHT22;9799;48.214;16.388;2022-11-23T10:38:38;7.00;99.90
19330;DHT22;9799;48.214;16.388;2022-11-23T10:42:02;7.00;99.90
19330;DHT22;9799;48.214;16.388;2022-11-23T10:45:27;7.10;99.90
19330;DHT22;9799;48.214;16.388;2022-11-23T10:48:50;7.10;99.90
19330;DHT22;9799;48.214;16.388;2022-11-23T10:52:26;7.10;99.90
19330;DHT22;9799;48.214;16.388;2022-11-23T10:55:51;7.20;99.90
19330;DHT22;9799;48.214;16.388;2022-11-23T10:59:26;7.30;99.90
19330;DHT22;9799;48.214;16.388;2022-11-23T11:02:49;7.30;99.90
19330;DHT22;9799;48.214;16.388;2022-11-23T11:06:10;7.30;99.90
19330;DHT22;9799;48.214;16.388;2022-11-23T11:09:41;7.20;99.90
19330;DHT22;9799;48.214;16.388;2022-11-23T11:13:23;7.20;99.90
19330;DHT22;9799;48.214;16.388;2022-11-23T11:16:47;7.20;99.90
19330;DHT22;9799;48.214;16.388;2022-11-23T11:20:28;7.20;99.90
19330;DHT22;9799;48.214;16.388;2022-11-23T11:23:52;7.30;99.90
19330;DHT22;9799;48.214;16.388;2022-11-23T11:27:16;7.30;99.90
19330;DHT22;9799;48.214;16.388;2022-11-23T11:30:45;7.20;99.90
19330;DHT22;9799;48.214;16.388;2022-11-23T11:34:16;7.30;99.90
19330;DHT22;9799;48.214;16.388;2022-11-23T11:37:42;7.30;99.90
19330;DHT22;9799;48.214;16.388;2022-11-23T11:41:07;7.30;99.90
19330;DHT22;9799;48.214;16.388;2022-11-23T11:44:31;7.30;99.90
19330;DHT22;9799;48.214;16.388;2022-11-23T11:47:59;7.40;99.90
19330;DHT22;9799;48.214;16.388;2022-11-23T11:51:25;7.40;99.90
19330;DHT22;9799;48.214;16.388;2022-11-23T11:54:51;7.50;99.90
19330;DHT22;9799;48.214;16.388;2022-11-23T11:58:16;7.50;99.90
19330;DHT22;9799;48.214;16.388;2022-11-23T12:01:43;7.60;99.90
19330;DHT22;9799;48.214;16.388;2022-11-23T12:05:13;7.60;99.90
19330;DHT22;9799;48.214;16.388;2022-11-23T12:08:42;7.60;99.90
19330;DHT22;9799;48.214;16.388;2022-11-23T12:12:12;7.60;99.90
19330;DHT22;9799;48.214;16.388;2022-11-23T12:15:38;7.50;99.90
19330;DHT22;9799;48.214;16.388;2022-11-23T12:19:08;7.60;99.90
19330;DHT22;9799;48.214;16.388;2022-11-23T12:22:41;7.60;99.90
19330;DHT22;9799;48.214;16.388;2022-11-23T12:26:18;7.70;99.90
19330;DHT22;9799;48.214;16.388;2022-11-23T12:29:50;7.50;99.90
19330;DHT22;9799;48.214;16.388;2022-11-23T12:33:32;7.50;99.90
19330;DHT22;9799;48.214;16.388;2022-11-23T12:37:09;7.50;99.90
19330;DHT22;9799;48.214;16.388;2022-11-23T12:40:47;7.50;99.90
19330;DHT22;9799;48.214;16.388;2022-11-23T12:44:37;7.50;99.90
19330;DHT22;9799;48.214;16.388;2022-11-23T12:48:21;7.50;99.90
19330;DHT22;9799;48.214;16.388;2022-11-23T12:51:54;7.50;99.90
19330;DHT22;9799;48.214;16.388;2022-11-23T12:55:20;7.50;99.90
19330;DHT22;9799;48.214;16.388;2022-11-23T12:58:46;7.40;99.90
19330;DHT22;9799;48.214;16.388;2022-11-23T13:02:25;7.40;99.90
19330;DHT22;9799;48.214;16.388;2022-11-23T13:13:53;7.30;99.90
19330;DHT22;9799;48.214;16.388;2022-11-23T13:17:24;7.30;99.90
19330;DHT22;9799;48.214;16.388;2022-11-23T13:21:03;7.40;99.90
19330;DHT22;9799;48.214;16.388;2022-11-23T13:24:30;7.30;99.90
19330;DHT22;9799;48.214;16.388;2022-11-23T13:27:57;7.30;99.90
19330;DHT22;9799;48.214;16.388;2022-11-23T13:31:23;7.20;99.90
19330;DHT22;9799;48.214;16.388;2022-11-23T13:34:46;7.30;99.90
19330;DHT22;9799;48.214;16.388;2022-11-23T13:38:43;7.30;99.90
19330;DHT22;9799;48.214;16.388;2022-11-23T13:42:04;7.40;99.90
19330;DHT22;9799;48.214;16.388;2022-11-23T13:45:28;7.30;99.90
19330;DHT22;9799;48.214;16.388;2022-11-23T13:48:53;7.40;99.90
19330;DHT22;9799;48.214;16.388;2022-11-23T13:52:25;7.40;99.90
19330;DHT22;9799;48.214;16.388;2022-11-23T13:55:47;7.40;99.90
19330;DHT22;9799;48.214;16.388;2022-11-23T13:59:26;7.50;99.90
19330;DHT22;9799;48.214;16.388;2022-11-23T14:02:48;7.30;99.90
19330;DHT22;9799;48.214;16.388;2022-11-23T14:06:13;7.30;99.90
19330;DHT22;9799;48.214;16.388;2022-11-23T14:09:43;7.40;99.90
19330;DHT22;9799;48.214;16.388;2022-11-23T14:13:10;7.30;99.90
19330;DHT22;9799;48.214;16.388;2022-11-23T14:17:03;7.30;99.90
19330;DHT22;9799;48.214;16.388;2022-11-23T14:20:52;7.20;99.90
19330;DHT22;9799;48.214;16.388;2022-11-23T14:24:43;7.30;99.90
19330;DHT22;9799;48.214;16.388;2022-11-23T14:28:27;7.20;99.90
19330;DHT22;9799;48.214;16.388;2022-11-23T14:32:09;7.30;99.90
19330;DHT22;9799;48.214;16.388;2022-11-23T14:35:40;7.20;99.90
19330;DHT22;9799;48.214;16.388;2022-11-23T14:39:36;7.10;99.90
19330;DHT22;9799;48.214;16.388;2022-11-23T14:43:03;7.20;99.90
19330;DHT22;9799;48.214;16.388;2022-11-23T14:46:25;7.20;99.90
19330;DHT22;9799;48.214;16.388;2022-11-23T14:49:49;7.20;99.90
19330;DHT22;9799;48.214;16.388;2022-11-23T14:53:11;7.20;99.90
19330;DHT22;9799;48.214;16.388;2022-11-23T14:56:35;7.30;99.90
19330;DHT22;9799;48.214;16.388;2022-11-23T14:59:59;7.30;99.90
19330;DHT22;9799;48.214;16.388;2022-11-23T15:03:26;7.40;99.90
19330;DHT22;9799;48.214;16.388;2022-11-23T15:06:50;7.30;99.90
19330;DHT22;9799;48.214;16.388;2022-11-23T15:10:31;7.30;99.90
19330;DHT22;9799;48.214;16.388;2022-11-23T15:13:54;7.40;99.90
19330;DHT22;9799;48.214;16.388;2022-11-23T15:17:20;7.40;99.90
19330;DHT22;9799;48.214;16.388;2022-11-23T15:20:43;7.50;99.90
19330;DHT22;9799;48.214;16.388;2022-11-23T15:24:19;7.40;99.90
19330;DHT22;9799;48.214;16.388;2022-11-23T15:27:41;7.50;99.90
19330;DHT22;9799;48.214;16.388;2022-11-23T15:31:16;7.30;99.90
19330;DHT22;9799;48.214;16.388;2022-11-23T15:34:39;7.30;99.90
19330;DHT22;9799;48.214;16.388;2022-11-23T15:38:01;7.20;99.90
19330;DHT22;9799;48.214;16.388;2022-11-23T15:41:23;7.10;99.90
19330;DHT22;9799;48.214;16.388;2022-11-23T15:44:46;7.30;99.90
19330;DHT22;9799;48.214;16.388;2022-11-23T15:48:11;7.40;99.90
19330;DHT22;9799;48.214;16.388;2022-11-23T15:51:38;7.50;99.90
19330;DHT22;9799;48.214;16.388;2022-11-23T15:55:02;7.50;99.90
19330;DHT22;9799;48.214;16.388;2022-11-23T15:58:23;7.60;99.90
19330;DHT22;9799;48.214;16.388;2022-11-23T16:01:44;7.50;99.90
19330;DHT22;9799;48.214;16.388;2022-11-23T16:05:12;7.50;99.90
19330;DHT22;9799;48.214;16.388;2022-11-23T16:08:35;7.40;99.90
19330;DHT22;9799;48.214;16.388;2022-11-23T16:11:59;7.40;99.90
19330;DHT22;9799;48.214;16.388;2022-11-23T16:15:38;7.30;99.90
19330;DHT22;9799;48.214;16.388;2022-11-23T16:19:01;7.30;99.90
19330;DHT22;9799;48.214;16.388;2022-11-23T16:22:29;7.30;99.90
19330;DHT22;9799;48.214;16.388;2022-11-23T16:25:58;7.50;99.90
19330;DHT22;9799;48.214;16.388;2022-11-23T16:29:22;7.50;99.90
19330;DHT22;9799;48.214;16.388;2022-11-23T16:32:44;7.40;99.90
19330;DHT22;9799;48.214;16.388;2022-11-23T16:36:05;7.30;99.90
19330;DHT22;9799;48.214;16.388;2022-11-23T16:39:27;7.40;99.90
19330;DHT22;9799;48.214;16.388;2022-11-23T16:42:52;7.40;99.90
19330;DHT22;9799;48.214;16.388;2022-11-23T16:46:13;7.40;99.90
19330;DHT22;9799;48.214;16.388;2022-11-23T16:49:35;7.40;99.90
19330;DHT22;9799;48.214;16.388;2022-11-23T16:52:57;7.40;99.90
19330;DHT22;9799;48.214;16.388;2022-11-23T16:56:23;7.50;99.90
19330;DHT22;9799;48.214;16.388;2022-11-23T16:59:47;7.40;99.90
19330;DHT22;9799;48.214;16.388;2022-11-23T17:03:09;7.40;99.90
19330;DHT22;9799;48.214;16.388;2022-11-23T17:06:34;7.50;99.90
19330;DHT22;9799;48.214;16.388;2022-11-23T17:09:56;7.50;99.90
19330;DHT22;9799;48.214;16.388;2022-11-23T17:13:25;7.40;99.90
19330;DHT22;9799;48.214;16.388;2022-11-23T17:16:50;7.50;99.90
19330;DHT22;9799;48.214;16.388;2022-11-23T17:20:13;7.50;99.90
19330;DHT22;9799;48.214;16.388;2022-11-23T17:23:35;7.50;99.90
19330;DHT22;9799;48.214;16.388;2022-11-23T17:26:59;7.50;99.90
19330;DHT22;9799;48.214;16.388;2022-11-23T17:30:21;7.40;99.90
19330;DHT22;9799;48.214;16.388;2022-11-23T17:33:47;7.40;99.90
19330;DHT22;9799;48.214;16.388;2022-11-23T17:37:15;7.50;99.90
19330;DHT22;9799;48.214;16.388;2022-11-23T17:40:40;7.50;99.90
19330;DHT22;9799;48.214;16.388;2022-11-23T17:44:03;7.50;99.90
19330;DHT22;9799;48.214;16.388;2022-11-23T17:47:27;7.40;99.90
19330;DHT22;9799;48.214;16.388;2022-11-23T17:50:51;7.40;99.90
19330;DHT22;9799;48.214;16.388;2022-11-23T17:54:13;7.50;99.90
19330;DHT22;9799;48.214;16.388;2022-11-23T17:57:34;7.50;99.90
19330;DHT22;9799;48.214;16.388;2022-11-23T18:00:57;7.60;99.90
19330;DHT22;9799;48.214;16.388;2022-11-23T18:04:19;7.50;99.90
19330;DHT22;9799;48.214;16.388;2022-11-23T18:07:43;7.50;99.90
19330;DHT22;9799;48.214;16.388;2022-11-23T18:11:08;7.50;99.90
19330;DHT22;9799;48.214;16.388;2022-11-23T18:14:31;7.40;99.90
19330;DHT22;9799;48.214;16.388;2022-11-23T18:17:54;7.40;99.90
19330;DHT22;9799;48.214;16.388;2022-11-23T18:21:16;7.40;99.90
19330;DHT22;9799;48.214;16.388;2022-11-23T18:24:40;7.40;99.90
19330;DHT22;9799;48.214;16.388;2022-11-23T18:28:07;7.40;99.90
19330;DHT22;9799;48.214;16.388;2022-11-23T18:31:30;7.50;99.90
19330;DHT22;9799;48.214;16.388;2022-11-23T18:34:53;7.50;99.90
19330;DHT22;9799;48.214;16.388;2022-11-23T18:38:15;7.50;99.90
19330;DHT22;9799;48.214;16.388;2022-11-23T18:41:39;7.50;99.90
19330;DHT22;9799;48.214;16.388;2022-11-23T18:45:01;7.50;99.90
19330;DHT22;9799;48.214;16.388;2022-11-23T18:48:23;7.50;99.90
19330;DHT22;9799;48.214;16.388;2022-11-23T18:51:45;7.60;99.90
19330;DHT22;9799;48.214;16.388;2022-11-23T18:55:08;7.60;99.90
19330;DHT22;9799;48.214;16.388;2022-11-23T18:58:34;7.60;99.90
19330;DHT22;9799;48.214;16.388;2022-11-23T19:01:56;7.50;99.90
19330;DHT22;9799;48.214;16.388;2022-11-23T19:05:19;7.40;99.90
19330;DHT22;9799;48.214;16.388;2022-11-23T19:08:44;7.40;99.90
19330;DHT22;9799;48.214;16.388;2022-11-23T19:12:07;7.40;99.90
19330;DHT22;9799;48.214;16.388;2022-11-23T19:15:35;7.50;99.90
19330;DHT22;9799;48.214;16.388;2022-11-23T19:19:00;7.40;99.90
19330;DHT22;9799;48.214;16.388;2022-11-23T19:22:22;7.50;99.90
19330;DHT22;9799;48.214;16.388;2022-11-23T19:25:44;7.50;99.90
19330;DHT22;9799;48.214;16.388;2022-11-23T19:29:08;7.50;99.90
19330;DHT22;9799;48.214;16.388;2022-11-23T19:32:33;7.60;99.90
19330;DHT22;9799;48.214;16.388;2022-11-23T19:35:55;7.60;99.90
19330;DHT22;9799;48.214;16.388;2022-11-23T19:39:17;7.60;99.90
19330;DHT22;9799;48.214;16.388;2022-11-23T19:42:39;7.60;99.90
19330;DHT22;9799;48.214;16.388;2022-11-23T19:46:04;7.60;99.90
19330;DHT22;9799;48.214;16.388;2022-11-23T19:49:29;7.50;99.90
19330;DHT22;9799;48.214;16.388;2022-11-23T19:52:53;7.60;99.90
19330;DHT22;9799;48.214;16.388;2022-11-23T19:56:18;7.60;99.90
19330;DHT22;9799;48.214;16.388;2022-11-23T19:59:42;7.60;99.90
19330;DHT22;9799;48.214;16.388;2022-11-23T20:03:03;7.60;99.90
19330;DHT22;9799;48.214;16.388;2022-11-23T20:06:29;7.60;99.90
19330;DHT22;9799;48.214;16.388;2022-11-23T20:09:52;7.50;99.90
19330;DHT22;9799;48.214;16.388;2022-11-23T20:13:15;7.60;99.90
19330;DHT22;9799;48.214;16.388;2022-11-23T20:16:37;7.60;99.90
19330;DHT22;9799;48.214;16.388;2022-11-23T20:20:00;7.60;99.90
19330;DHT22;9799;48.214;16.388;2022-11-23T20:23:25;7.70;99.90
19330;DHT22;9799;48.214;16.388;2022-11-23T20:26:47;7.70;99.90
19330;DHT22;9799;48.214;16.388;2022-11-23T20:30:10;7.70;99.90
19330;DHT22;9799;48.214;16.388;2022-11-23T20:33:32;7.70;99.90
19330;DHT22;9799;48.214;16.388;2022-11-23T20:36:54;7.70;99.90
19330;DHT22;9799;48.214;16.388;2022-11-23T20:40:18;7.60;99.90
19330;DHT22;9799;48.214;16.388;2022-11-23T20:43:40;7.70;99.90
19330;DHT22;9799;48.214;16.388;2022-11-23T20:47:03;7.60;99.90
19330;DHT22;9799;48.214;16.388;2022-11-23T20:50:25;7.60;99.90
19330;DHT22;9799;48.214;16.388;2022-11-23T20:53:51;7.60;99.90
19330;DHT22;9799;48.214;16.388;2022-11-23T20:57:16;7.70;99.90
19330;DHT22;9799;48.214;16.388;2022-11-23T21:00:38;7.80;99.90
19330;DHT22;9799;48.214;16.388;2022-11-23T21:04:00;7.70;99.90
19330;DHT22;9799;48.214;16.388;2022-11-23T21:07:23;7.70;99.90
19330;DHT22;9799;48.214;16.388;2022-11-23T21:10:44;7.70;99.90
19330;DHT22;9799;48.214;16.388;2022-11-23T21:14:24;7.70;99.90
19330;DHT22;9799;48.214;16.388;2022-11-23T21:17:46;7.80;99.90
19330;DHT22;9799;48.214;16.388;2022-11-23T21:21:07;7.70;99.90
19330;DHT22;9799;48.214;16.388;2022-11-23T21:24:30;7.70;99.90
19330;DHT22;9799;48.214;16.388;2022-11-23T21:27:53;7.70;99.90
19330;DHT22;9799;48.214;16.388;2022-11-23T21:31:16;7.60;99.90
19330;DHT22;9799;48.214;16.388;2022-11-23T21:34:37;7.60;99.90
19330;DHT22;9799;48.214;16.388;2022-11-23T21:37:58;7.70;99.90
19330;DHT22;9799;48.214;16.388;2022-11-23T21:41:20;7.70;99.90
19330;DHT22;9799;48.214;16.388;2022-11-23T21:44:41;7.70;99.90
19330;DHT22;9799;48.214;16.388;2022-11-23T21:48:04;7.70;99.90
19330;DHT22;9799;48.214;16.388;2022-11-23T21:51:28;7.80;99.90
19330;DHT22;9799;48.214;16.388;2022-11-23T21:54:49;7.80;99.90
19330;DHT22;9799;48.214;16.388;2022-11-23T21:58:10;7.70;99.90